Terminal Aerodrome Forecast
Issued by NWS Albany, NY

Home | Current Version | Previous Version | Text Only | Print | Product List | Glossary On
Versions: 1 2 3 4 5 6 7 8 9 10 11 12 13 14 15 16 17 18 19
000
FTUS41 KALY 220555 CCA
TAFGFL
TAF COR
KGFL 220555Z 2206/2306 00000KT P6SM BKN250
      TEMPO 2206/2208 2SM BR
     FM220800 00000KT P6SM SCT250
      TEMPO 2208/2212 1SM BR
     FM221300 17003KT P6SM SCT200=

USA.gov is the U.S. government's official web portal to all federal, state and local government web resources and services.